Time;durP1;ratioP1;P1;durP2;ratioP2;P2;SDS_P1;SDS_P2;PMS_P1;PMS_P2;Temp;Humidity;BMP_temperature;BMP_pressure;BME280_temperature;BME280_humidity;BME280_pressure;Samples;Min_cycle;Max_cycle;Signal;HPM_P1;HPM_P2
2023/06/13 00:00:32;;;;;;;;;;;19.80;99.90;;;;;;5023863;28;19913;-66
2023/06/13 00:02:58;;;;;;;;;;;19.70;99.90;;;;;;5017041;28;19916;-66
2023/06/13 00:05:24;;;;;;;;;;;19.60;99.90;;;;;;5017639;28;19915;-65
2023/06/13 00:07:49;;;;;;;;;;;19.60;99.90;;;;;;5016054;28;19913;-66
2023/06/13 00:10:15;;;;;;;;;;;19.60;99.90;;;;;;5018496;28;19909;-65
2023/06/13 00:12:44;;;;;;;;;;;19.50;99.90;;;;;;5019645;28;20044;-65
2023/06/13 00:15:11;;;;;;;;;;;19.50;99.90;;;;;;5016737;28;19913;-66
2023/06/13 00:17:38;;;;;;;;;;;19.50;99.90;;;;;;5013911;28;19917;-66
2023/06/13 00:20:07;;;;;;;;;;;19.50;99.90;;;;;;5014874;28;20039;-66
2023/06/13 00:22:33;;;;;;;;;;;19.40;99.90;;;;;;5014366;28;20382;-66
2023/06/13 00:24:58;;;;;;;;;;;19.40;99.90;;;;;;5018263;28;19957;-66
2023/06/13 00:27:24;;;;;;;;;;;19.40;99.90;;;;;;5018993;28;19961;-67
2023/06/13 00:29:50;;;;;;;;;;;19.40;99.90;;;;;;5021518;28;20233;-66
2023/06/13 00:32:17;;;;;;;;;;;19.40;99.90;;;;;;5018742;28;20330;-74
2023/06/13 00:34:43;;;;;;;;;;;19.30;99.90;;;;;;5021013;28;20216;-66
2023/06/13 00:37:09;;;;;;;;;;;19.30;99.90;;;;;;5018917;28;19920;-66
2023/06/13 00:39:41;;;;;;;;;;;19.30;99.90;;;;;;5015998;28;19909;-66
2023/06/13 00:42:07;;;;;;;;;;;19.30;99.90;;;;;;5014973;28;19917;-66
2023/06/13 00:44:33;;;;;;;;;;;19.30;99.90;;;;;;5014890;28;19910;-66
2023/06/13 00:47:00;;;;;;;;;;;19.30;99.90;;;;;;5015335;28;20008;-66
2023/06/13 00:49:26;;;;;;;;;;;19.30;99.90;;;;;;5007752;28;19920;-65
2023/06/13 00:51:53;;;;;;;;;;;19.30;99.90;;;;;;5009099;28;20004;-66
2023/06/13 00:54:19;;;;;;;;;;;19.30;99.90;;;;;;5015504;28;19956;-74
2023/06/13 00:56:45;;;;;;;;;;;19.30;99.90;;;;;;5014968;28;20303;-70
2023/06/13 00:59:12;;;;;;;;;;;19.30;99.90;;;;;;5015014;28;19920;-66
2023/06/13 01:01:40;;;;;;;;;;;19.30;99.90;;;;;;5010529;28;19905;-66
2023/06/13 01:04:07;;;;;;;;;;;19.30;99.90;;;;;;5014381;28;19910;-66
2023/06/13 01:06:38;;;;;;;;;;;19.30;99.90;;;;;;5015604;28;20004;-67
2023/06/13 01:09:05;;;;;;;;;;;19.30;99.90;;;;;;5014384;28;19917;-66
2023/06/13 01:11:49;;;;;;;;;;;19.50;99.90;;;;;;5003429;28;20251;-66
2023/06/13 01:14:16;;;;;;;;;;;19.40;99.90;;;;;;5015109;28;20216;-66
2023/06/13 01:16:54;;;;;;;;;;;19.40;99.90;;;;;;5014306;28;19948;-66
2023/06/13 01:19:41;;;;;;;;;;;19.50;99.90;;;;;;5015009;28;19917;-74
2023/06/13 01:22:10;;;;;;;;;;;19.40;99.90;;;;;;5013996;28;19940;-65
2023/06/13 01:24:49;;;;;;;;;;;19.30;99.90;;;;;;5014033;28;19913;-66
2023/06/13 01:27:16;;;;;;;;;;;19.30;99.90;;;;;;5015448;28;19909;-66
2023/06/13 01:29:42;;;;;;;;;;;19.30;99.90;;;;;;5014171;28;19913;-65
2023/06/13 01:32:08;;;;;;;;;;;19.40;99.90;;;;;;5014514;28;20058;-66
2023/06/13 01:34:34;;;;;;;;;;;19.50;99.90;;;;;;5017737;28;19979;-66
2023/06/13 01:37:00;;;;;;;;;;;19.40;99.90;;;;;;5006579;28;19909;-66
2023/06/13 01:39:26;;;;;;;;;;;19.30;99.90;;;;;;5015382;28;19959;-73
2023/06/13 01:41:52;;;;;;;;;;;19.20;99.90;;;;;;5015214;28;19960;-66
2023/06/13 01:44:19;;;;;;;;;;;19.20;99.90;;;;;;5015740;28;19921;-73
2023/06/13 01:46:51;;;;;;;;;;;19.10;99.90;;;;;;5014667;28;19909;-66
2023/06/13 01:49:19;;;;;;;;;;;19.20;99.90;;;;;;5015263;28;19909;-66
2023/06/13 01:51:55;;;;;;;;;;;19.20;99.90;;;;;;5015566;28;19913;-66
2023/06/13 01:54:21;;;;;;;;;;;19.20;99.90;;;;;;5014795;28;20358;-74
2023/06/13 01:56:49;;;;;;;;;;;19.20;99.90;;;;;;5013867;28;19917;-66
2023/06/13 01:59:15;;;;;;;;;;;19.20;99.90;;;;;;5015060;28;20186;-66
2023/06/13 02:01:42;;;;;;;;;;;19.20;99.90;;;;;;5015308;28;20283;-75
2023/06/13 02:04:08;;;;;;;;;;;19.10;99.90;;;;;;5014449;28;19912;-66
2023/06/13 02:06:33;;;;;;;;;;;19.10;99.90;;;;;;5014707;28;19909;-67
2023/06/13 02:09:01;;;;;;;;;;;19.10;99.90;;;;;;5012782;28;19921;-74
2023/06/13 02:11:27;;;;;;;;;;;19.10;99.90;;;;;;5015450;28;19905;-66
2023/06/13 02:13:53;;;;;;;;;;;19.00;99.90;;;;;;5013820;28;19924;-65
2023/06/13 02:16:18;;;;;;;;;;;19.00;99.90;;;;;;5013320;28;19910;-65
2023/06/13 02:18:46;;;;;;;;;;;18.90;99.90;;;;;;5021210;28;19936;-74
2023/06/13 02:21:12;;;;;;;;;;;18.90;99.90;;;;;;5014137;28;20048;-66
2023/06/13 02:23:38;;;;;;;;;;;18.90;99.90;;;;;;5013568;28;20307;-65
2023/06/13 02:26:04;;;;;;;;;;;18.90;99.90;;;;;;5014406;28;19956;-66
2023/06/13 02:28:30;;;;;;;;;;;18.90;99.90;;;;;;5014331;28;19914;-66
2023/06/13 02:30:56;;;;;;;;;;;18.90;99.90;;;;;;5014451;28;19917;-66
2023/06/13 02:33:21;;;;;;;;;;;18.80;99.90;;;;;;5014350;28;19909;-67
2023/06/13 02:35:47;;;;;;;;;;;18.90;99.90;;;;;;5013148;28;20323;-66
2023/06/13 02:38:13;;;;;;;;;;;18.80;99.90;;;;;;5013340;28;20316;-66
2023/06/13 02:40:39;;;;;;;;;;;18.80;99.90;;;;;;5014546;28;19909;-66
2023/06/13 02:43:04;;;;;;;;;;;18.80;99.90;;;;;;5017912;28;19920;-65
2023/06/13 02:45:30;;;;;;;;;;;18.70;99.90;;;;;;5015078;28;19956;-74
2023/06/13 02:47:56;;;;;;;;;;;18.70;99.90;;;;;;5016719;28;20331;-66
2023/06/13 02:50:22;;;;;;;;;;;18.60;99.90;;;;;;5018583;28;19996;-66
2023/06/13 02:52:48;;;;;;;;;;;18.60;99.90;;;;;;5018387;28;19960;-66
2023/06/13 02:55:13;;;;;;;;;;;18.60;99.90;;;;;;5018371;28;19909;-66
2023/06/13 02:57:39;;;;;;;;;;;18.60;99.90;;;;;;5018323;28;19925;-66
2023/06/13 03:00:09;;;;;;;;;;;18.50;99.90;;;;;;5017976;28;19912;-66
2023/06/13 03:02:38;;;;;;;;;;;18.50;99.90;;;;;;5017143;28;19919;-66
2023/06/13 03:05:10;;;;;;;;;;;18.50;99.90;;;;;;5017811;28;20259;-66
2023/06/13 03:07:36;;;;;;;;;;;18.50;99.90;;;;;;5018361;28;20006;-70
2023/06/13 03:10:06;;;;;;;;;;;18.40;99.90;;;;;;5019527;28;19913;-66
2023/06/13 03:12:31;;;;;;;;;;;18.30;99.90;;;;;;5024267;28;19916;-66
2023/06/13 03:14:57;;;;;;;;;;;18.30;99.90;;;;;;5027478;28;20290;-65
2023/06/13 03:17:23;;;;;;;;;;;18.20;99.90;;;;;;5018462;28;19909;-66
2023/06/13 03:19:48;;;;;;;;;;;18.20;99.90;;;;;;5021553;28;19916;-65
2023/06/13 03:22:14;;;;;;;;;;;18.20;99.90;;;;;;5018871;28;19916;-65
2023/06/13 03:24:41;;;;;;;;;;;18.10;99.90;;;;;;5024889;28;20208;-65
2023/06/13 03:27:06;;;;;;;;;;;18.10;99.90;;;;;;5022831;28;19988;-66
2023/06/13 03:29:32;;;;;;;;;;;18.00;99.90;;;;;;5020265;28;20048;-66
2023/06/13 03:31:58;;;;;;;;;;;17.90;99.90;;;;;;5033458;28;19920;-74
2023/06/13 03:34:28;;;;;;;;;;;17.90;99.90;;;;;;5021372;28;19909;-67
2023/06/13 03:36:54;;;;;;;;;;;17.90;99.90;;;;;;5024959;28;19905;-65
2023/06/13 03:39:19;;;;;;;;;;;17.80;99.90;;;;;;5023462;28;19919;-74
2023/06/13 03:41:45;;;;;;;;;;;17.70;99.90;;;;;;5017499;28;19935;-66
2023/06/13 03:44:11;;;;;;;;;;;17.70;99.90;;;;;;5016680;28;19917;-75
2023/06/13 03:46:37;;;;;;;;;;;17.70;99.90;;;;;;5016844;28;19914;-65
2023/06/13 03:49:02;;;;;;;;;;;17.60;99.90;;;;;;5016399;28;20277;-65
2023/06/13 03:51:28;;;;;;;;;;;17.60;99.90;;;;;;5020856;28;19909;-73
2023/06/13 03:53:53;;;;;;;;;;;17.60;99.90;;;;;;5017512;28;20223;-65
2023/06/13 03:56:19;;;;;;;;;;;17.50;99.90;;;;;;5010287;28;20285;-74
2023/06/13 03:58:44;;;;;;;;;;;17.50;99.90;;;;;;5017431;28;20228;-65
2023/06/13 04:01:11;;;;;;;;;;;17.50;99.90;;;;;;5017490;28;19926;-68
2023/06/13 04:03:39;;;;;;;;;;;17.50;99.90;;;;;;5017189;28;19910;-65
2023/06/13 04:06:08;;;;;;;;;;;17.50;99.90;;;;;;5017611;28;19909;-65
2023/06/13 04:08:36;;;;;;;;;;;17.50;99.90;;;;;;5016662;28;20061;-75
2023/06/13 04:11:01;;;;;;;;;;;17.60;99.90;;;;;;5016615;28;19919;-66
2023/06/13 04:13:27;;;;;;;;;;;17.60;99.90;;;;;;5017694;28;19992;-65
2023/06/13 04:15:52;;;;;;;;;;;17.60;99.90;;;;;;5016816;28;19906;-65
2023/06/13 04:18:18;;;;;;;;;;;17.60;99.90;;;;;;5016892;28;19912;-74
2023/06/13 04:20:44;;;;;;;;;;;17.70;99.90;;;;;;5029154;28;19919;-65
2023/06/13 04:23:10;;;;;;;;;;;17.70;99.90;;;;;;5017990;28;19913;-66
2023/06/13 04:25:36;;;;;;;;;;;17.80;99.90;;;;;;5022414;28;19905;-72
2023/06/13 04:28:02;;;;;;;;;;;17.80;99.90;;;;;;5022172;28;19909;-66
2023/06/13 04:30:28;;;;;;;;;;;17.90;99.90;;;;;;5015961;28;20327;-66
2023/06/13 04:32:57;;;;;;;;;;;17.90;99.90;;;;;;5028194;28;19945;-66
2023/06/13 04:35:23;;;;;;;;;;;17.90;99.90;;;;;;5022291;28;19948;-66
2023/06/13 04:37:48;;;;;;;;;;;17.90;99.90;;;;;;5024345;28;19992;-65
2023/06/13 04:40:14;;;;;;;;;;;17.90;99.90;;;;;;5021278;28;20000;-65
2023/06/13 04:42:47;;;;;;;;;;;17.90;99.90;;;;;;5024521;28;19925;-65
2023/06/13 04:45:13;;;;;;;;;;;18.00;99.90;;;;;;5028264;28;19920;-65
2023/06/13 04:47:39;;;;;;;;;;;18.00;99.90;;;;;;5024444;28;19912;-65
2023/06/13 04:50:06;;;;;;;;;;;18.10;99.90;;;;;;5023411;28;19914;-65
2023/06/13 04:52:33;;;;;;;;;;;18.10;99.90;;;;;;5017353;28;19913;-66
2023/06/13 04:55:00;;;;;;;;;;;18.10;99.90;;;;;;5025522;28;19905;-74
2023/06/13 04:57:26;;;;;;;;;;;18.20;99.90;;;;;;5014434;28;19971;-66
2023/06/13 04:59:52;;;;;;;;;;;18.20;99.90;;;;;;5024791;28;19909;-66
2023/06/13 05:02:17;;;;;;;;;;;18.30;99.90;;;;;;5016215;28;19998;-75
2023/06/13 05:04:44;;;;;;;;;;;18.30;99.90;;;;;;5017318;28;19993;-66
2023/06/13 05:07:14;;;;;;;;;;;18.30;99.90;;;;;;5015933;28;19910;-65
2023/06/13 05:09:43;;;;;;;;;;;18.30;99.90;;;;;;5016498;28;19910;-65
2023/06/13 05:12:10;;;;;;;;;;;18.30;99.90;;;;;;5015718;28;20315;-66
2023/06/13 05:14:36;;;;;;;;;;;18.50;99.90;;;;;;5016808;28;20196;-65
2023/06/13 05:17:05;;;;;;;;;;;18.50;99.90;;;;;;5016217;28;19914;-69
2023/06/13 05:19:34;;;;;;;;;;;18.50;99.90;;;;;;5016650;28;19944;-66
2023/06/13 05:22:02;;;;;;;;;;;18.60;99.90;;;;;;5016014;28;19909;-75
2023/06/13 05:24:28;;;;;;;;;;;18.60;99.90;;;;;;5015731;28;19906;-66
2023/06/13 05:26:54;;;;;;;;;;;18.60;99.90;;;;;;5016620;28;19916;-65
2023/06/13 05:29:19;;;;;;;;;;;18.70;99.90;;;;;;5015679;28;19917;-66
2023/06/13 05:31:45;;;;;;;;;;;18.70;99.90;;;;;;5016319;28;19905;-65
2023/06/13 05:34:10;;;;;;;;;;;18.70;99.90;;;;;;5015576;28;20157;-66
2023/06/13 05:36:36;;;;;;;;;;;18.80;99.90;;;;;;5018701;28;19909;-65
2023/06/13 05:39:01;;;;;;;;;;;18.80;99.90;;;;;;5025020;28;19918;-65
2023/06/13 05:41:27;;;;;;;;;;;18.80;99.90;;;;;;5028872;28;19909;-65
2023/06/13 05:43:52;;;;;;;;;;;18.80;99.90;;;;;;5026967;28;20268;-66
2023/06/13 05:46:18;;;;;;;;;;;18.90;99.90;;;;;;5030815;28;19905;-65
2023/06/13 05:48:44;;;;;;;;;;;19.00;99.90;;;;;;5031503;28;19935;-66
2023/06/13 05:51:09;;;;;;;;;;;19.00;99.90;;;;;;5032738;28;20311;-76
2023/06/13 05:53:35;;;;;;;;;;;19.10;99.90;;;;;;5027862;28;20028;-66
2023/06/13 05:56:00;;;;;;;;;;;19.10;99.90;;;;;;5029332;28;19956;-74
2023/06/13 05:58:26;;;;;;;;;;;19.10;99.90;;;;;;5029764;28;19909;-66
2023/06/13 06:00:52;;;;;;;;;;;19.10;99.90;;;;;;5030269;28;19905;-66
2023/06/13 06:03:18;;;;;;;;;;;19.20;99.90;;;;;;5025727;28;20296;-73
2023/06/13 06:05:44;;;;;;;;;;;19.30;99.90;;;;;;5024387;28;19972;-66
2023/06/13 06:08:09;;;;;;;;;;;19.30;99.90;;;;;;5013140;28;19913;-74
2023/06/13 06:10:35;;;;;;;;;;;19.40;99.90;;;;;;5016309;28;19953;-66
2023/06/13 06:13:00;;;;;;;;;;;19.40;99.90;;;;;;5013942;28;19909;-66
2023/06/13 06:15:27;;;;;;;;;;;19.50;99.90;;;;;;5017446;28;19905;-66
2023/06/13 06:17:52;;;;;;;;;;;19.50;99.90;;;;;;5019799;28;19916;-67
2023/06/13 06:20:18;;;;;;;;;;;19.50;99.90;;;;;;5037833;28;20219;-75
2023/06/13 06:22:43;;;;;;;;;;;19.60;99.90;;;;;;5028993;28;19913;-66
2023/06/13 06:25:12;;;;;;;;;;;19.70;99.90;;;;;;5024381;28;20315;-66
2023/06/13 06:27:38;;;;;;;;;;;19.80;99.90;;;;;;5017088;28;20015;-67
2023/06/13 06:30:04;;;;;;;;;;;19.90;99.90;;;;;;5020608;28;20347;-66
2023/06/13 06:32:30;;;;;;;;;;;20.00;99.90;;;;;;5029582;28;19909;-66
2023/06/13 06:34:56;;;;;;;;;;;20.10;99.90;;;;;;5018973;28;20248;-74
2023/06/13 06:37:22;;;;;;;;;;;20.10;99.90;;;;;;5014903;28;19925;-66
2023/06/13 06:39:47;;;;;;;;;;;20.10;99.90;;;;;;5026262;28;19996;-66
2023/06/13 06:42:13;;;;;;;;;;;20.20;99.90;;;;;;5024653;28;19979;-67
2023/06/13 06:44:38;;;;;;;;;;;20.20;99.90;;;;;;5015405;28;20219;-65
2023/06/13 06:47:04;;;;;;;;;;;20.30;99.90;;;;;;5015797;28;19909;-66
2023/06/13 06:49:30;;;;;;;;;;;20.30;99.90;;;;;;5014807;28;19914;-66
2023/06/13 06:51:55;;;;;;;;;;;20.40;99.90;;;;;;5021253;28;20255;-66
2023/06/13 06:54:21;;;;;;;;;;;20.40;99.90;;;;;;5018607;28;19917;-76
2023/06/13 06:56:46;;;;;;;;;;;20.40;99.90;;;;;;5020719;28;20046;-66
2023/06/13 06:59:12;;;;;;;;;;;20.50;99.90;;;;;;5021697;28;19913;-66
2023/06/13 07:01:37;;;;;;;;;;;20.60;99.90;;;;;;5017410;28;19917;-67
2023/06/13 07:04:03;;;;;;;;;;;20.60;99.90;;;;;;5020241;28;19909;-73
2023/06/13 07:06:30;;;;;;;;;;;20.70;99.90;;;;;;5014915;28;20012;-71
2023/06/13 07:08:56;;;;;;;;;;;20.70;99.90;;;;;;5014468;28;19913;-76
2023/06/13 07:11:22;;;;;;;;;;;20.70;99.90;;;;;;5013543;28;19940;-71
2023/06/13 07:13:47;;;;;;;;;;;20.90;99.90;;;;;;5028935;28;19913;-66
2023/06/13 07:16:13;;;;;;;;;;;20.90;99.90;;;;;;5013180;28;19909;-66
2023/06/13 07:18:38;;;;;;;;;;;21.00;99.90;;;;;;5014739;28;19921;-67
2023/06/13 07:21:04;;;;;;;;;;;21.10;99.90;;;;;;5013183;28;19909;-67
2023/06/13 07:23:29;;;;;;;;;;;21.20;99.90;;;;;;5009220;28;20304;-68
2023/06/13 07:25:55;;;;;;;;;;;21.30;99.90;;;;;;5012477;28;19970;-67
2023/06/13 07:28:21;;;;;;;;;;;21.30;99.90;;;;;;5018741;28;19932;-73
2023/06/13 07:30:47;;;;;;;;;;;21.50;99.90;;;;;;5015391;28;19909;-75
2023/06/13 07:33:13;;;;;;;;;;;21.60;99.90;;;;;;5018621;28;19988;-74
2023/06/13 07:35:39;;;;;;;;;;;21.70;99.90;;;;;;5016747;28;20066;-76
2023/06/13 07:38:05;;;;;;;;;;;21.80;99.90;;;;;;5017766;28;19916;-75
2023/06/13 07:40:31;;;;;;;;;;;21.80;99.90;;;;;;5017388;28;19913;-77
2023/06/13 07:42:56;;;;;;;;;;;21.90;99.90;;;;;;5017249;28;20296;-75
2023/06/13 07:45:22;;;;;;;;;;;21.90;99.90;;;;;;5017347;28;20215;-69
2023/06/13 07:47:47;;;;;;;;;;;22.00;99.90;;;;;;5017899;28;19949;-75
2023/06/13 07:50:13;;;;;;;;;;;22.10;99.90;;;;;;5017744;28;19913;-68
2023/06/13 07:52:39;;;;;;;;;;;22.20;99.90;;;;;;5018013;28;19909;-73
2023/06/13 07:55:05;;;;;;;;;;;22.30;99.90;;;;;;5017866;28;19906;-74
2023/06/13 07:57:31;;;;;;;;;;;22.50;99.90;;;;;;5014305;28;20039;-75
2023/06/13 07:59:56;;;;;;;;;;;22.60;99.90;;;;;;5016445;28;20020;-75
2023/06/13 08:02:23;;;;;;;;;;;22.70;99.90;;;;;;5018574;28;19905;-67
2023/06/13 08:04:49;;;;;;;;;;;22.70;99.90;;;;;;5016823;28;19919;-66
2023/06/13 08:07:14;;;;;;;;;;;22.80;99.00;;;;;;5016541;28;19909;-66
2023/06/13 08:09:40;;;;;;;;;;;22.80;99.30;;;;;;5016427;28;19959;-65
2023/06/13 08:12:06;;;;;;;;;;;22.90;98.80;;;;;;5017458;28;19905;-66
2023/06/13 08:14:31;;;;;;;;;;;23.00;99.70;;;;;;5018884;28;19913;-69
2023/06/13 08:16:57;;;;;;;;;;;23.10;98.90;;;;;;5017897;28;19975;-66
2023/06/13 08:19:22;;;;;;;;;;;23.30;99.50;;;;;;5027414;28;19975;-67
2023/06/13 08:21:48;;;;;;;;;;;23.50;99.50;;;;;;5030046;28;20513;-67
2023/06/13 08:24:14;;;;;;;;;;;23.60;98.30;;;;;;5032493;28;20211;-67
2023/06/13 08:26:39;;;;;;;;;;;23.70;98.70;;;;;;5035845;28;19952;-67
2023/06/13 08:29:05;;;;;;;;;;;23.90;98.10;;;;;;5016437;28;19919;-67
2023/06/13 08:31:32;;;;;;;;;;;24.00;96.70;;;;;;5024312;28;19974;-75
2023/06/13 08:33:58;;;;;;;;;;;24.10;98.20;;;;;;5030889;28;19976;-66
2023/06/13 08:36:25;;;;;;;;;;;24.20;97.40;;;;;;5019477;28;19934;-67
2023/06/13 08:38:59;;;;;;;;;;;24.20;97.00;;;;;;5027105;28;19996;-66
2023/06/13 08:41:25;;;;;;;;;;;24.10;96.10;;;;;;5029852;28;20111;-67
2023/06/13 08:43:52;;;;;;;;;;;24.10;96.50;;;;;;5022088;28;19936;-67
2023/06/13 08:46:18;;;;;;;;;;;24.20;97.00;;;;;;5031678;28;19995;-66
2023/06/13 08:48:43;;;;;;;;;;;24.40;97.30;;;;;;5034337;28;20063;-67
2023/06/13 08:51:14;;;;;;;;;;;24.70;96.60;;;;;;5027150;28;19920;-68
2023/06/13 08:53:46;;;;;;;;;;;24.70;96.30;;;;;;5022303;28;20014;-66
2023/06/13 08:56:11;;;;;;;;;;;24.80;95.50;;;;;;5033822;28;20006;-67
2023/06/13 08:58:38;;;;;;;;;;;24.90;95.40;;;;;;5023182;28;19949;-67
2023/06/13 09:01:05;;;;;;;;;;;25.10;96.60;;;;;;5027303;28;19912;-67
2023/06/13 09:03:31;;;;;;;;;;;25.10;95.60;;;;;;5022706;28;20220;-66
2023/06/13 09:05:57;;;;;;;;;;;25.20;95.60;;;;;;5023269;28;19909;-66
2023/06/13 09:08:24;;;;;;;;;;;25.20;96.10;;;;;;5029537;28;19915;-66
2023/06/13 09:10:50;;;;;;;;;;;25.20;94.40;;;;;;5026749;28;19913;-66
2023/06/13 09:13:16;;;;;;;;;;;25.30;95.40;;;;;;5025094;28;21191;-66
2023/06/13 09:15:43;;;;;;;;;;;25.30;94.90;;;;;;5019587;28;19913;-68
2023/06/13 09:18:09;;;;;;;;;;;25.30;94.60;;;;;;5029935;28;20358;-66
2023/06/13 09:20:35;;;;;;;;;;;25.30;95.20;;;;;;5025787;28;19919;-67
2023/06/13 09:23:02;;;;;;;;;;;25.40;95.70;;;;;;5019780;28;19992;-66
2023/06/13 09:25:29;;;;;;;;;;;25.50;94.50;;;;;;5031523;28;19913;-66
2023/06/13 09:27:55;;;;;;;;;;;25.50;94.20;;;;;;5027333;28;20019;-66
2023/06/13 09:30:20;;;;;;;;;;;25.50;94.50;;;;;;5028461;28;20568;-67
2023/06/13 09:32:49;;;;;;;;;;;25.30;94.10;;;;;;5023385;28;19909;-75
2023/06/13 09:35:16;;;;;;;;;;;25.30;93.90;;;;;;5031473;28;19948;-67
2023/06/13 09:37:42;;;;;;;;;;;25.50;95.20;;;;;;5030512;28;20636;-67
2023/06/13 09:40:09;;;;;;;;;;;25.70;96.00;;;;;;5025323;28;19962;-67
2023/06/13 09:42:35;;;;;;;;;;;25.70;94.60;;;;;;5031875;28;20292;-67
2023/06/13 09:45:04;;;;;;;;;;;25.70;94.40;;;;;;5025992;28;19916;-66
2023/06/13 09:47:30;;;;;;;;;;;25.60;94.10;;;;;;5024023;28;19920;-67
2023/06/13 09:49:56;;;;;;;;;;;25.70;95.70;;;;;;5030426;28;19909;-67
2023/06/13 09:52:23;;;;;;;;;;;25.80;94.00;;;;;;5031649;28;19913;-67
2023/06/13 09:54:48;;;;;;;;;;;25.70;93.80;;;;;;5019684;28;19905;-67
2023/06/13 09:57:14;;;;;;;;;;;25.60;94.20;;;;;;5015879;28;19927;-66
2023/06/13 09:59:39;;;;;;;;;;;25.60;94.20;;;;;;5016742;28;19957;-65
2023/06/13 10:02:05;;;;;;;;;;;25.60;93.00;;;;;;5015935;28;19909;-67
2023/06/13 10:04:31;;;;;;;;;;;25.60;94.20;;;;;;5008673;28;19924;-66
2023/06/13 10:06:56;;;;;;;;;;;25.60;92.10;;;;;;5015193;28;20257;-73
2023/06/13 10:09:22;;;;;;;;;;;25.60;93.60;;;;;;5014187;28;19963;-67
2023/06/13 10:11:50;;;;;;;;;;;25.80;92.90;;;;;;5015865;28;20000;-66
2023/06/13 10:14:16;;;;;;;;;;;25.80;92.00;;;;;;5014412;28;19968;-67
2023/06/13 10:16:47;;;;;;;;;;;25.80;91.80;;;;;;5015385;28;19952;-66
2023/06/13 10:19:18;;;;;;;;;;;25.70;92.10;;;;;;5014881;28;19905;-77
2023/06/13 10:21:44;;;;;;;;;;;25.70;92.10;;;;;;5015422;28;20256;-74
2023/06/13 10:24:11;;;;;;;;;;;25.90;93.30;;;;;;5022076;28;19941;-75
2023/06/13 10:26:40;;;;;;;;;;;26.00;91.80;;;;;;5027752;28;19956;-66
2023/06/13 10:29:09;;;;;;;;;;;26.00;92.50;;;;;;5023792;28;20268;-67
2023/06/13 10:31:35;;;;;;;;;;;26.00;93.60;;;;;;5024862;28;19975;-67
2023/06/13 10:34:16;;;;;;;;;;;26.00;92.60;;;;;;5020653;28;20305;-66
2023/06/13 10:37:00;;;;;;;;;;;25.90;92.00;;;;;;5026416;28;19913;-74
2023/06/13 10:39:29;;;;;;;;;;;25.80;92.40;;;;;;5027433;28;20285;-65
2023/06/13 10:42:04;;;;;;;;;;;25.80;92.00;;;;;;5029186;28;19961;-66
2023/06/13 10:44:40;;;;;;;;;;;25.80;92.30;;;;;;5024341;28;19989;-66
2023/06/13 10:47:09;;;;;;;;;;;25.90;91.90;;;;;;5013801;28;19909;-66
2023/06/13 10:49:42;;;;;;;;;;;25.90;92.30;;;;;;5023992;28;19917;-67
2023/06/13 10:52:11;;;;;;;;;;;26.00;91.60;;;;;;5026240;28;20331;-67
2023/06/13 10:54:38;;;;;;;;;;;26.00;93.10;;;;;;5018732;28;20063;-66
2023/06/13 10:57:03;;;;;;;;;;;26.00;92.30;;;;;;5021524;28;20194;-67
2023/06/13 10:59:36;;;;;;;;;;;26.00;93.20;;;;;;5019794;28;19909;-66
2023/06/13 11:02:02;;;;;;;;;;;26.00;91.20;;;;;;5016048;28;20207;-67
2023/06/13 11:04:28;;;;;;;;;;;26.00;92.20;;;;;;5022032;28;19905;-67
2023/06/13 11:07:13;;;;;;;;;;;26.00;91.40;;;;;;5017681;28;19909;-68
2023/06/13 11:09:39;;;;;;;;;;;25.90;91.70;;;;;;5018219;28;19913;-67
2023/06/13 11:12:06;;;;;;;;;;;25.90;90.60;;;;;;5016253;28;20190;-75
2023/06/13 11:14:33;;;;;;;;;;;25.90;91.50;;;;;;5017751;28;19920;-67
2023/06/13 11:16:58;;;;;;;;;;;26.00;91.60;;;;;;5017714;28;19955;-68
2023/06/13 11:19:26;;;;;;;;;;;26.00;90.70;;;;;;5015277;28;20296;-68
2023/06/13 11:22:06;;;;;;;;;;;26.00;90.70;;;;;;5017572;28;19920;-67
2023/06/13 11:24:32;;;;;;;;;;;26.00;92.20;;;;;;5016409;28;20323;-67
2023/06/13 11:26:59;;;;;;;;;;;26.00;91.90;;;;;;5017384;28;19905;-67
2023/06/13 11:29:26;;;;;;;;;;;26.00;91.80;;;;;;5017311;28;19913;-66
2023/06/13 11:31:52;;;;;;;;;;;26.20;92.90;;;;;;5018078;28;19916;-67
2023/06/13 11:34:18;;;;;;;;;;;26.20;91.60;;;;;;5016658;28;19909;-67
2023/06/13 11:36:45;;;;;;;;;;;26.30;91.70;;;;;;5018544;28;20039;-68
2023/06/13 11:39:12;;;;;;;;;;;26.20;92.50;;;;;;5017961;28;19909;-68
2023/06/13 11:41:37;;;;;;;;;;;26.20;91.50;;;;;;5004583;28;19912;-67
2023/06/13 11:44:03;;;;;;;;;;;26.20;91.90;;;;;;5017942;28;19905;-68
2023/06/13 11:46:29;;;;;;;;;;;26.10;91.40;;;;;;5016814;28;19959;-67
2023/06/13 11:48:55;;;;;;;;;;;26.10;91.60;;;;;;5017042;28;20043;-67
2023/06/13 11:51:21;;;;;;;;;;;26.10;90.80;;;;;;5017722;28;20216;-66
2023/06/13 11:53:56;;;;;;;;;;;26.10;90.70;;;;;;5019254;28;19905;-77
2023/06/13 11:56:23;;;;;;;;;;;26.10;91.40;;;;;;5029019;28;20267;-65
2023/06/13 11:58:50;;;;;;;;;;;26.10;90.70;;;;;;5027342;28;19917;-67
2023/06/13 12:01:21;;;;;;;;;;;26.20;91.90;;;;;;5037959;28;19948;-66
2023/06/13 12:03:49;;;;;;;;;;;26.30;90.00;;;;;;5030588;28;19912;-66
2023/06/13 12:06:15;;;;;;;;;;;26.30;91.50;;;;;;5025697;28;19912;-67
2023/06/13 12:08:47;;;;;;;;;;;26.20;90.90;;;;;;5026557;28;20295;-78
2023/06/13 12:11:13;;;;;;;;;;;26.10;90.50;;;;;;5025954;28;20315;-66
2023/06/13 12:13:39;;;;;;;;;;;26.10;90.80;;;;;;5032508;28;19955;-67
2023/06/13 12:16:06;;;;;;;;;;;26.10;91.40;;;;;;5028192;28;19913;-73
2023/06/13 12:18:32;;;;;;;;;;;26.10;90.80;;;;;;5021652;28;19920;-67
2023/06/13 12:20:58;;;;;;;;;;;26.20;90.90;;;;;;5019967;28;20235;-66
2023/06/13 12:23:23;;;;;;;;;;;26.30;91.50;;;;;;5021443;28;19913;-66
2023/06/13 12:25:50;;;;;;;;;;;26.30;91.20;;;;;;5023099;28;19909;-67
2023/06/13 12:28:17;;;;;;;;;;;26.40;90.70;;;;;;5021540;28;20015;-67
2023/06/13 12:30:43;;;;;;;;;;;26.20;90.30;;;;;;5014696;28;19921;-67
2023/06/13 12:33:15;;;;;;;;;;;26.30;91.40;;;;;;5023093;28;19916;-76
2023/06/13 12:35:49;;;;;;;;;;;26.30;90.60;;;;;;5027490;28;20238;-67
2023/06/13 12:38:15;;;;;;;;;;;26.40;92.10;;;;;;5015269;28;19909;-67
2023/06/13 12:40:41;;;;;;;;;;;26.40;91.00;;;;;;5023901;28;20000;-75
2023/06/13 12:43:06;;;;;;;;;;;26.40;91.10;;;;;;5026905;28;20336;-67
2023/06/13 12:45:32;;;;;;;;;;;26.40;90.80;;;;;;5021792;28;19967;-68
2023/06/13 12:47:58;;;;;;;;;;;26.40;91.40;;;;;;5040054;28;20262;-67
2023/06/13 12:50:24;;;;;;;;;;;26.50;92.10;;;;;;5020160;28;19971;-69
2023/06/13 12:53:00;;;;;;;;;;;26.50;89.10;;;;;;5020237;28;20305;-68
2023/06/13 12:55:25;;;;;;;;;;;26.40;90.20;;;;;;5015793;28;19912;-67
2023/06/13 12:57:52;;;;;;;;;;;26.50;90.30;;;;;;5020816;28;19917;-68
2023/06/13 13:00:19;;;;;;;;;;;26.50;89.50;;;;;;5012061;28;19913;-75
2023/06/13 13:02:45;;;;;;;;;;;26.60;90.50;;;;;;5020254;28;20312;-67
2023/06/13 13:05:11;;;;;;;;;;;26.70;90.80;;;;;;5020165;28;20004;-75
2023/06/13 13:07:36;;;;;;;;;;;26.70;90.90;;;;;;5002720;28;19906;-67
2023/06/13 13:10:02;;;;;;;;;;;26.80;91.80;;;;;;5016495;28;20216;-68
2023/06/13 13:12:28;;;;;;;;;;;26.70;90.50;;;;;;5014427;28;19913;-68
2023/06/13 13:14:53;;;;;;;;;;;26.80;88.40;;;;;;5013599;28;20219;-66
2023/06/13 13:17:19;;;;;;;;;;;26.80;87.70;;;;;;5014058;28;19921;-67
2023/06/13 13:19:46;;;;;;;;;;;26.70;91.50;;;;;;5014669;28;19909;-67
2023/06/13 13:22:12;;;;;;;;;;;26.30;93.10;;;;;;5025880;28;19964;-67
2023/06/13 13:24:38;;;;;;;;;;;26.10;94.00;;;;;;5021372;28;20006;-66
2023/06/13 13:27:04;;;;;;;;;;;26.00;94.10;;;;;;5022860;28;19909;-68
2023/06/13 13:29:29;;;;;;;;;;;25.80;94.70;;;;;;5025063;28;19920;-67
2023/06/13 13:31:55;;;;;;;;;;;25.70;95.10;;;;;;5018014;28;19991;-66
2023/06/13 13:34:22;;;;;;;;;;;25.90;95.90;;;;;;5020364;28;19909;-77
2023/06/13 13:36:47;;;;;;;;;;;25.80;94.40;;;;;;5024741;28;20300;-67
2023/06/13 13:39:14;;;;;;;;;;;25.80;95.30;;;;;;5019948;28;20000;-66
2023/06/13 13:41:40;;;;;;;;;;;25.70;94.50;;;;;;5022771;28;19909;-67
2023/06/13 13:44:06;;;;;;;;;;;25.60;95.90;;;;;;5018896;28;20315;-67
2023/06/13 13:46:31;;;;;;;;;;;25.70;95.00;;;;;;5021247;28;19909;-67
2023/06/13 13:48:57;;;;;;;;;;;25.50;96.70;;;;;;5017946;28;19919;-76
2023/06/13 13:51:23;;;;;;;;;;;25.50;94.90;;;;;;5018285;28;20296;-67
2023/06/13 13:53:50;;;;;;;;;;;25.60;93.20;;;;;;5024324;28;20193;-67
2023/06/13 13:56:15;;;;;;;;;;;25.50;93.30;;;;;;5021324;28;19925;-68
2023/06/13 13:58:41;;;;;;;;;;;25.50;92.80;;;;;;5024895;28;19905;-68
2023/06/13 14:01:06;;;;;;;;;;;25.40;92.70;;;;;;5015793;28;19906;-66
2023/06/13 14:03:32;;;;;;;;;;;25.30;93.80;;;;;;5024677;28;20296;-67
2023/06/13 14:05:57;;;;;;;;;;;25.30;93.60;;;;;;5015722;28;19912;-68
2023/06/13 14:08:23;;;;;;;;;;;25.30;93.90;;;;;;5015494;28;19906;-67
2023/06/13 14:10:48;;;;;;;;;;;25.40;94.00;;;;;;5015250;28;19953;-68
2023/06/13 14:13:14;;;;;;;;;;;25.50;94.20;;;;;;5015774;28;19914;-68